sensor_id;sensor_type;location;lat;lon;timestamp;pressure;altitude;pressure_sealevel;temperature;humidity
16821;BME280;8527;49.740;6.604;2023-07-22T00:02:02;99651.84;;;16.03;70.70
16821;BME280;8527;49.740;6.604;2023-07-22T00:07:04;99653.69;;;15.96;70.67
16821;BME280;8527;49.740;6.604;2023-07-22T00:12:16;99640.91;;;16.05;70.90
16821;BME280;8527;49.740;6.604;2023-07-22T00:17:20;99644.41;;;15.79;70.90
16821;BME280;8527;49.740;6.604;2023-07-22T00:22:22;99644.41;;;15.79;71.64
16821;BME280;8527;49.740;6.604;2023-07-22T00:27:35;99643.78;;;15.77;72.22
16821;BME280;8527;49.740;6.604;2023-07-22T00:32:34;99647.69;;;15.60;71.97
16821;BME280;8527;49.740;6.604;2023-07-22T00:37:34;99637.78;;;15.47;73.31
16821;BME280;8527;49.740;6.604;2023-07-22T00:42:35;99639.66;;;15.54;74.12
16821;BME280;8527;49.740;6.604;2023-07-22T00:47:34;99637.41;;;15.57;74.92
16821;BME280;8527;49.740;6.604;2023-07-22T00:52:33;99634.69;;;15.37;74.11
16821;BME280;8527;49.740;6.604;2023-07-22T00:57:31;99628.09;;;15.26;74.81
16821;BME280;8527;49.740;6.604;2023-07-22T01:02:33;99632.19;;;15.15;73.78
16821;BME280;8527;49.740;6.604;2023-07-22T01:07:32;99633.66;;;15.25;75.93
16821;BME280;8527;49.740;6.604;2023-07-22T01:12:36;99621.72;;;15.27;75.97
16821;BME280;8527;49.740;6.604;2023-07-22T01:17:38;99621.50;;;15.15;76.10
16821;BME280;8527;49.740;6.604;2023-07-22T01:22:52;99629.66;;;15.00;75.25
16821;BME280;8527;49.740;6.604;2023-07-22T01:27:51;99625.59;;;15.04;76.21
16821;BME280;8527;49.740;6.604;2023-07-22T01:32:50;99628.84;;;14.93;76.23
16821;BME280;8527;49.740;6.604;2023-07-22T01:37:48;99626.72;;;14.75;77.05
16821;BME280;8527;49.740;6.604;2023-07-22T01:42:52;99631.75;;;14.63;76.51
16821;BME280;8527;49.740;6.604;2023-07-22T01:47:51;99622.50;;;14.59;77.02
16821;BME280;8527;49.740;6.604;2023-07-22T01:52:49;99629.09;;;14.70;78.62
16821;BME280;8527;49.740;6.604;2023-07-22T01:58:19;99630.13;;;14.69;78.76
16821;BME280;8527;49.740;6.604;2023-07-22T02:03:17;99629.47;;;14.60;77.06
16821;BME280;8527;49.740;6.604;2023-07-22T02:08:27;99636.78;;;14.44;79.41
16821;BME280;8527;49.740;6.604;2023-07-22T02:13:31;99633.78;;;14.26;77.93
16821;BME280;8527;49.740;6.604;2023-07-22T02:18:29;99631.13;;;14.26;79.23
16821;BME280;8527;49.740;6.604;2023-07-22T02:23:29;99623.34;;;14.24;79.47
16821;BME280;8527;49.740;6.604;2023-07-22T02:28:35;99618.59;;;14.19;78.54
16821;BME280;8527;49.740;6.604;2023-07-22T02:33:36;99616.16;;;14.25;80.02
16821;BME280;8527;49.740;6.604;2023-07-22T02:38:38;99621.84;;;14.15;79.70
16821;BME280;8527;49.740;6.604;2023-07-22T02:43:39;99621.94;;;14.00;80.27
16821;BME280;8527;49.740;6.604;2023-07-22T02:48:44;99619.16;;;13.86;79.54
16821;BME280;8527;49.740;6.604;2023-07-22T02:53:46;99622.94;;;13.99;80.62
16821;BME280;8527;49.740;6.604;2023-07-22T02:58:50;99621.03;;;13.86;78.65
16821;BME280;8527;49.740;6.604;2023-07-22T03:03:51;99628.53;;;13.75;78.79
16821;BME280;8527;49.740;6.604;2023-07-22T03:08:59;99630.06;;;13.63;81.00
16821;BME280;8527;49.740;6.604;2023-07-22T03:14:02;99622.00;;;13.56;81.33
16821;BME280;8527;49.740;6.604;2023-07-22T03:19:11;99629.03;;;13.64;81.38
16821;BME280;8527;49.740;6.604;2023-07-22T03:24:09;99624.34;;;13.66;80.63
16821;BME280;8527;49.740;6.604;2023-07-22T03:29:11;99627.47;;;13.48;82.47
16821;BME280;8527;49.740;6.604;2023-07-22T03:34:13;99630.00;;;13.56;81.98
16821;BME280;8527;49.740;6.604;2023-07-22T03:39:14;99628.72;;;13.52;81.62
16821;BME280;8527;49.740;6.604;2023-07-22T03:44:16;99628.13;;;13.35;82.07
16821;BME280;8527;49.740;6.604;2023-07-22T03:49:14;99632.41;;;13.51;83.04
16821;BME280;8527;49.740;6.604;2023-07-22T03:54:12;99639.03;;;13.40;82.41
16821;BME280;8527;49.740;6.604;2023-07-22T03:59:18;99635.84;;;13.45;82.99
16821;BME280;8527;49.740;6.604;2023-07-22T04:04:20;99636.75;;;13.37;81.14
16821;BME280;8527;49.740;6.604;2023-07-22T04:09:19;99637.75;;;13.14;83.38
16821;BME280;8527;49.740;6.604;2023-07-22T04:14:22;99641.63;;;13.33;83.81
16821;BME280;8527;49.740;6.604;2023-07-22T04:19:26;99639.53;;;13.29;81.86
16821;BME280;8527;49.740;6.604;2023-07-22T04:24:25;99648.53;;;13.28;82.50
16821;BME280;8527;49.740;6.604;2023-07-22T04:29:29;99646.34;;;13.31;82.26
16821;BME280;8527;49.740;6.604;2023-07-22T04:34:46;99655.19;;;13.54;83.39
16821;BME280;8527;49.740;6.604;2023-07-22T04:39:48;99654.97;;;13.77;82.96
16821;BME280;8527;49.740;6.604;2023-07-22T04:44:56;99653.44;;;13.89;82.40
16821;BME280;8527;49.740;6.604;2023-07-22T04:50:00;99649.53;;;13.85;82.81
16821;BME280;8527;49.740;6.604;2023-07-22T04:54:59;99658.25;;;14.01;83.75
16821;BME280;8527;49.740;6.604;2023-07-22T05:00:07;99655.03;;;14.41;82.24
16821;BME280;8527;49.740;6.604;2023-07-22T05:05:09;99652.94;;;14.71;81.34
16821;BME280;8527;49.740;6.604;2023-07-22T05:10:10;99649.75;;;14.83;80.98
16821;BME280;8527;49.740;6.604;2023-07-22T05:15:17;99655.56;;;15.00;80.81
16821;BME280;8527;49.740;6.604;2023-07-22T05:20:22;99654.63;;;15.28;79.72
16821;BME280;8527;49.740;6.604;2023-07-22T05:25:26;99652.00;;;15.55;78.81
16821;BME280;8527;49.740;6.604;2023-07-22T05:30:27;99662.25;;;15.51;78.48
16821;BME280;8527;49.740;6.604;2023-07-22T05:35:26;99660.63;;;15.57;78.72
16821;BME280;8527;49.740;6.604;2023-07-22T05:40:27;99656.94;;;15.71;79.42
16821;BME280;8527;49.740;6.604;2023-07-22T05:45:31;99662.72;;;16.29;76.35
16821;BME280;8527;49.740;6.604;2023-07-22T05:50:29;99667.91;;;15.97;77.17
16821;BME280;8527;49.740;6.604;2023-07-22T05:55:27;99670.31;;;15.85;78.04
16821;BME280;8527;49.740;6.604;2023-07-22T06:00:26;99668.28;;;15.87;77.56
16821;BME280;8527;49.740;6.604;2023-07-22T06:05:27;99665.78;;;15.65;78.49
16821;BME280;8527;49.740;6.604;2023-07-22T06:10:25;99672.59;;;15.68;78.21
16821;BME280;8527;49.740;6.604;2023-07-22T06:15:25;99682.06;;;16.04;77.34
16821;BME280;8527;49.740;6.604;2023-07-22T06:20:28;99674.88;;;16.18;77.17
16821;BME280;8527;49.740;6.604;2023-07-22T06:25:33;99678.38;;;16.05;77.43
16821;BME280;8527;49.740;6.604;2023-07-22T06:30:31;99684.97;;;16.16;76.64
16821;BME280;8527;49.740;6.604;2023-07-22T06:35:32;99696.50;;;16.16;76.89
16821;BME280;8527;49.740;6.604;2023-07-22T06:40:33;99694.84;;;16.29;76.56
16821;BME280;8527;49.740;6.604;2023-07-22T06:45:31;99691.97;;;16.30;76.78
16821;BME280;8527;49.740;6.604;2023-07-22T06:50:32;99685.78;;;16.23;77.22
16821;BME280;8527;49.740;6.604;2023-07-22T06:55:30;99687.78;;;16.55;75.73
16821;BME280;8527;49.740;6.604;2023-07-22T07:00:29;99690.44;;;16.75;75.43
16821;BME280;8527;49.740;6.604;2023-07-22T07:05:38;99694.91;;;16.88;75.15
16821;BME280;8527;49.740;6.604;2023-07-22T07:10:39;99700.03;;;16.96;73.88
16821;BME280;8527;49.740;6.604;2023-07-22T07:15:37;99692.63;;;17.44;73.43
16821;BME280;8527;49.740;6.604;2023-07-22T07:20:39;99688.06;;;18.90;69.67
16821;BME280;8527;49.740;6.604;2023-07-22T07:25:37;99676.66;;;19.99;64.36
16821;BME280;8527;49.740;6.604;2023-07-22T07:30:35;99677.81;;;20.62;61.59
16821;BME280;8527;49.740;6.604;2023-07-22T07:35:34;99675.13;;;21.61;59.18
16821;BME280;8527;49.740;6.604;2023-07-22T07:40:38;99678.31;;;21.29;60.41
16821;BME280;8527;49.740;6.604;2023-07-22T07:45:39;99674.84;;;22.09;58.82
16821;BME280;8527;49.740;6.604;2023-07-22T07:50:38;99676.41;;;21.88;58.88
16821;BME280;8527;49.740;6.604;2023-07-22T07:55:38;99672.56;;;22.57;56.38
16821;BME280;8527;49.740;6.604;2023-07-22T08:00:40;99669.97;;;23.35;54.10
16821;BME280;8527;49.740;6.604;2023-07-22T08:05:39;99662.06;;;23.60;52.97
16821;BME280;8527;49.740;6.604;2023-07-22T08:10:40;99668.03;;;24.86;51.77
16821;BME280;8527;49.740;6.604;2023-07-22T08:15:39;99652.03;;;24.37;50.93
16821;BME280;8527;49.740;6.604;2023-07-22T08:20:38;99674.59;;;25.11;48.90
16821;BME280;8527;49.740;6.604;2023-07-22T08:25:36;99671.19;;;25.78;45.67
16821;BME280;8527;49.740;6.604;2023-07-22T08:30:47;99670.28;;;26.45;41.86
16821;BME280;8527;49.740;6.604;2023-07-22T08:35:46;99672.00;;;27.02;41.21
16821;BME280;8527;49.740;6.604;2023-07-22T08:40:48;99671.06;;;27.97;39.97
16821;BME280;8527;49.740;6.604;2023-07-22T08:45:54;99659.84;;;27.98;40.75
16821;BME280;8527;49.740;6.604;2023-07-22T08:51:03;99661.28;;;28.20;40.56
16821;BME280;8527;49.740;6.604;2023-07-22T08:56:05;99663.91;;;28.01;39.96
16821;BME280;8527;49.740;6.604;2023-07-22T09:01:06;99657.94;;;28.53;39.78
16821;BME280;8527;49.740;6.604;2023-07-22T09:06:05;99664.72;;;28.55;39.51
16821;BME280;8527;49.740;6.604;2023-07-22T09:11:04;99653.72;;;28.60;38.66
16821;BME280;8527;49.740;6.604;2023-07-22T09:16:02;99650.13;;;29.09;38.73
16821;BME280;8527;49.740;6.604;2023-07-22T09:21:04;99639.91;;;28.76;38.03
16821;BME280;8527;49.740;6.604;2023-07-22T09:26:11;99637.47;;;29.32;37.48
16821;BME280;8527;49.740;6.604;2023-07-22T09:31:16;99648.03;;;29.58;37.27
16821;BME280;8527;49.740;6.604;2023-07-22T09:36:17;99634.56;;;28.66;35.94
16821;BME280;8527;49.740;6.604;2023-07-22T09:41:18;99634.69;;;27.77;38.09
16821;BME280;8527;49.740;6.604;2023-07-22T09:46:17;99630.31;;;27.06;39.83
16821;BME280;8527;49.740;6.604;2023-07-22T09:51:18;99639.81;;;27.09;39.03
16821;BME280;8527;49.740;6.604;2023-07-22T09:56:20;99629.91;;;27.63;38.02
16821;BME280;8527;49.740;6.604;2023-07-22T10:01:23;99629.75;;;27.44;37.71
16821;BME280;8527;49.740;6.604;2023-07-22T10:06:27;99632.44;;;27.55;37.86
16821;BME280;8527;49.740;6.604;2023-07-22T10:11:27;99633.03;;;27.01;38.77
16821;BME280;8527;49.740;6.604;2023-07-22T10:16:28;99632.75;;;26.47;38.86
16821;BME280;8527;49.740;6.604;2023-07-22T10:21:29;99627.59;;;26.40;39.45
16821;BME280;8527;49.740;6.604;2023-07-22T10:26:28;99637.53;;;26.66;39.29
16821;BME280;8527;49.740;6.604;2023-07-22T10:31:34;99630.97;;;26.77;39.05
16821;BME280;8527;49.740;6.604;2023-07-22T10:36:37;99618.44;;;26.76;39.03
16821;BME280;8527;49.740;6.604;2023-07-22T10:41:38;99620.72;;;27.14;38.28
16821;BME280;8527;49.740;6.604;2023-07-22T10:46:39;99615.34;;;27.73;38.53
16821;BME280;8527;49.740;6.604;2023-07-22T10:51:45;99611.16;;;27.57;37.51
16821;BME280;8527;49.740;6.604;2023-07-22T10:56:45;99605.13;;;27.60;37.98
16821;BME280;8527;49.740;6.604;2023-07-22T11:01:50;99593.72;;;27.52;37.08
16821;BME280;8527;49.740;6.604;2023-07-22T11:06:55;99589.47;;;27.01;37.08
16821;BME280;8527;49.740;6.604;2023-07-22T11:11:56;99604.53;;;26.83;38.81
16821;BME280;8527;49.740;6.604;2023-07-22T11:16:57;99598.91;;;26.64;38.27
16821;BME280;8527;49.740;6.604;2023-07-22T11:21:58;99596.69;;;25.95;39.43
16821;BME280;8527;49.740;6.604;2023-07-22T11:26:57;99594.38;;;26.49;39.02
16821;BME280;8527;49.740;6.604;2023-07-22T11:31:57;99600.88;;;26.53;39.23
16821;BME280;8527;49.740;6.604;2023-07-22T11:36:58;99592.19;;;26.51;38.17
16821;BME280;8527;49.740;6.604;2023-07-22T11:42:00;99583.75;;;27.37;38.08
16821;BME280;8527;49.740;6.604;2023-07-22T11:47:05;99578.44;;;27.57;38.16
16821;BME280;8527;49.740;6.604;2023-07-22T11:52:11;99570.59;;;27.50;38.04
16821;BME280;8527;49.740;6.604;2023-07-22T11:57:10;99574.94;;;26.71;37.93
16821;BME280;8527;49.740;6.604;2023-07-22T12:02:16;99572.88;;;26.98;39.11
16821;BME280;8527;49.740;6.604;2023-07-22T12:07:27;99564.41;;;27.04;38.66
16821;BME280;8527;49.740;6.604;2023-07-22T12:12:34;99557.78;;;26.71;38.77
16821;BME280;8527;49.740;6.604;2023-07-22T12:17:44;99568.53;;;26.96;38.62
16821;BME280;8527;49.740;6.604;2023-07-22T12:22:45;99568.78;;;26.55;38.77
16821;BME280;8527;49.740;6.604;2023-07-22T12:27:47;99564.16;;;26.50;38.60
16821;BME280;8527;49.740;6.604;2023-07-22T12:32:45;99549.06;;;26.23;38.63
16821;BME280;8527;49.740;6.604;2023-07-22T12:37:46;99558.22;;;26.38;39.06
16821;BME280;8527;49.740;6.604;2023-07-22T12:42:54;99552.66;;;26.64;38.60
16821;BME280;8527;49.740;6.604;2023-07-22T12:47:57;99559.31;;;26.37;38.60
16821;BME280;8527;49.740;6.604;2023-07-22T12:53:00;99542.38;;;26.56;38.08
16821;BME280;8527;49.740;6.604;2023-07-22T12:57:58;99540.41;;;26.66;38.06
16821;BME280;8527;49.740;6.604;2023-07-22T13:02:56;99550.97;;;26.73;38.99
16821;BME280;8527;49.740;6.604;2023-07-22T13:08:03;99532.03;;;26.98;37.90
16821;BME280;8527;49.740;6.604;2023-07-22T13:13:02;99533.28;;;26.71;38.20
16821;BME280;8527;49.740;6.604;2023-07-22T13:18:09;99528.63;;;26.81;38.77
16821;BME280;8527;49.740;6.604;2023-07-22T13:23:21;99520.34;;;27.32;37.85
16821;BME280;8527;49.740;6.604;2023-07-22T13:28:19;99509.16;;;27.04;37.27
16821;BME280;8527;49.740;6.604;2023-07-22T13:33:26;99513.03;;;27.27;38.54
16821;BME280;8527;49.740;6.604;2023-07-22T13:38:28;99501.38;;;26.87;38.93
16821;BME280;8527;49.740;6.604;2023-07-22T13:43:29;99503.75;;;26.53;39.51
16821;BME280;8527;49.740;6.604;2023-07-22T13:48:28;99511.50;;;26.76;39.51
16821;BME280;8527;49.740;6.604;2023-07-22T13:53:29;99487.41;;;26.53;39.24
16821;BME280;8527;49.740;6.604;2023-07-22T13:58:27;99497.78;;;26.51;39.78
16821;BME280;8527;49.740;6.604;2023-07-22T14:03:26;99484.25;;;26.36;39.18
16821;BME280;8527;49.740;6.604;2023-07-22T14:08:24;99478.34;;;26.68;39.46
16821;BME280;8527;49.740;6.604;2023-07-22T14:13:25;99490.91;;;26.64;40.33
16821;BME280;8527;49.740;6.604;2023-07-22T14:18:30;99473.75;;;26.64;39.18
16821;BME280;8527;49.740;6.604;2023-07-22T14:23:28;99468.16;;;26.50;39.41
16821;BME280;8527;49.740;6.604;2023-07-22T14:28:29;99477.16;;;26.40;39.94
16821;BME280;8527;49.740;6.604;2023-07-22T14:33:28;99470.88;;;26.50;39.56
16821;BME280;8527;49.740;6.604;2023-07-22T14:38:26;99454.16;;;26.62;39.62
16821;BME280;8527;49.740;6.604;2023-07-22T14:43:31;99454.94;;;26.67;40.28
16821;BME280;8527;49.740;6.604;2023-07-22T14:48:42;99454.84;;;26.43;39.49
16821;BME280;8527;49.740;6.604;2023-07-22T14:53:50;99456.34;;;26.15;39.79
16821;BME280;8527;49.740;6.604;2023-07-22T14:58:51;99446.88;;;26.02;39.31
16821;BME280;8527;49.740;6.604;2023-07-22T15:03:50;99452.00;;;26.08;40.34
16821;BME280;8527;49.740;6.604;2023-07-22T15:08:50;99459.03;;;26.25;39.43
16821;BME280;8527;49.740;6.604;2023-07-22T15:13:48;99450.91;;;26.09;39.91
16821;BME280;8527;49.740;6.604;2023-07-22T15:18:49;99459.84;;;26.15;40.13
16821;BME280;8527;49.740;6.604;2023-07-22T15:24:05;99464.69;;;26.34;39.18
16821;BME280;8527;49.740;6.604;2023-07-22T15:29:03;99463.78;;;25.88;40.56
16821;BME280;8527;49.740;6.604;2023-07-22T15:34:05;99457.44;;;26.19;40.87
16821;BME280;8527;49.740;6.604;2023-07-22T15:39:03;99449.41;;;25.88;40.53
16821;BME280;8527;49.740;6.604;2023-07-22T15:44:03;99448.91;;;25.70;40.97
16821;BME280;8527;49.740;6.604;2023-07-22T15:49:07;99440.47;;;25.82;40.83
16821;BME280;8527;49.740;6.604;2023-07-22T15:54:06;99432.06;;;25.68;41.02
16821;BME280;8527;49.740;6.604;2023-07-22T15:59:05;99425.56;;;25.69;40.41
16821;BME280;8527;49.740;6.604;2023-07-22T16:04:03;99432.63;;;25.65;40.34
16821;BME280;8527;49.740;6.604;2023-07-22T16:09:12;99434.59;;;25.54;40.50
16821;BME280;8527;49.740;6.604;2023-07-22T16:14:13;99423.94;;;25.73;41.15
16821;BME280;8527;49.740;6.604;2023-07-22T16:19:12;99417.41;;;25.74;40.75
16821;BME280;8527;49.740;6.604;2023-07-22T16:24:13;99415.16;;;25.87;40.81
16821;BME280;8527;49.740;6.604;2023-07-22T16:29:22;99411.22;;;25.42;41.03
16821;BME280;8527;49.740;6.604;2023-07-22T16:34:23;99414.22;;;25.41;41.29
16821;BME280;8527;49.740;6.604;2023-07-22T16:39:27;99422.63;;;25.55;41.48
16821;BME280;8527;49.740;6.604;2023-07-22T16:44:37;99414.19;;;25.46;41.71
16821;BME280;8527;49.740;6.604;2023-07-22T16:49:42;99407.13;;;25.45;41.96
16821;BME280;8527;49.740;6.604;2023-07-22T16:54:43;99402.28;;;25.37;41.78
16821;BME280;8527;49.740;6.604;2023-07-22T16:59:42;99400.09;;;25.39;41.53
16821;BME280;8527;49.740;6.604;2023-07-22T17:04:40;99392.28;;;25.11;42.33
16821;BME280;8527;49.740;6.604;2023-07-22T17:09:41;99401.53;;;25.10;41.43
16821;BME280;8527;49.740;6.604;2023-07-22T17:14:42;99396.13;;;24.95;42.30
16821;BME280;8527;49.740;6.604;2023-07-22T17:19:44;99389.59;;;24.85;42.14
16821;BME280;8527;49.740;6.604;2023-07-22T17:24:43;99376.06;;;24.91;42.25
16821;BME280;8527;49.740;6.604;2023-07-22T17:29:48;99377.41;;;24.88;42.55
16821;BME280;8527;49.740;6.604;2023-07-22T17:34:49;99379.81;;;24.74;42.50
16821;BME280;8527;49.740;6.604;2023-07-22T17:39:48;99373.59;;;24.53;42.40
16821;BME280;8527;49.740;6.604;2023-07-22T17:44:49;99368.97;;;24.58;42.38
16821;BME280;8527;49.740;6.604;2023-07-22T17:49:47;99370.88;;;24.58;42.82
16821;BME280;8527;49.740;6.604;2023-07-22T17:54:46;99364.91;;;24.35;42.94
16821;BME280;8527;49.740;6.604;2023-07-22T17:59:44;99363.25;;;24.29;43.25
16821;BME280;8527;49.740;6.604;2023-07-22T18:04:45;99368.97;;;24.33;43.33
16821;BME280;8527;49.740;6.604;2023-07-22T18:09:44;99360.28;;;24.36;43.82
16821;BME280;8527;49.740;6.604;2023-07-22T18:14:43;99362.44;;;24.13;43.71
16821;BME280;8527;49.740;6.604;2023-07-22T18:19:41;99359.47;;;24.14;43.60
16821;BME280;8527;49.740;6.604;2023-07-22T18:24:43;99367.78;;;23.97;43.77
16821;BME280;8527;49.740;6.604;2023-07-22T18:29:41;99363.41;;;23.86;43.82
16821;BME280;8527;49.740;6.604;2023-07-22T18:34:40;99363.91;;;23.67;44.09
16821;BME280;8527;49.740;6.604;2023-07-22T18:39:42;99357.09;;;23.54;44.20
16821;BME280;8527;49.740;6.604;2023-07-22T18:44:44;99362.84;;;23.73;44.30
16821;BME280;8527;49.740;6.604;2023-07-22T18:49:43;99359.84;;;23.65;43.80
16821;BME280;8527;49.740;6.604;2023-07-22T18:54:46;99361.50;;;23.71;44.01
16821;BME280;8527;49.740;6.604;2023-07-22T18:59:44;99349.84;;;23.70;44.42
16821;BME280;8527;49.740;6.604;2023-07-22T19:04:43;99357.41;;;23.68;45.85
16821;BME280;8527;49.740;6.604;2023-07-22T19:09:47;99354.06;;;23.45;45.02
16821;BME280;8527;49.740;6.604;2023-07-22T19:14:48;99364.41;;;23.54;44.78
16821;BME280;8527;49.740;6.604;2023-07-22T19:19:49;99357.91;;;23.55;46.79
16821;BME280;8527;49.740;6.604;2023-07-22T19:24:51;99368.94;;;23.43;48.38
16821;BME280;8527;49.740;6.604;2023-07-22T19:29:52;99364.00;;;23.29;48.40
16821;BME280;8527;49.740;6.604;2023-07-22T19:34:50;99363.38;;;23.17;49.22
16821;BME280;8527;49.740;6.604;2023-07-22T19:39:51;99373.03;;;23.02;50.17
16821;BME280;8527;49.740;6.604;2023-07-22T19:44:50;99368.94;;;22.95;49.32
16821;BME280;8527;49.740;6.604;2023-07-22T19:49:51;99373.16;;;22.80;50.04
16821;BME280;8527;49.740;6.604;2023-07-22T19:54:52;99370.38;;;22.70;50.14
16821;BME280;8527;49.740;6.604;2023-07-22T19:59:54;99372.44;;;22.57;50.68
16821;BME280;8527;49.740;6.604;2023-07-22T20:04:55;99377.53;;;22.54;51.60
16821;BME280;8527;49.740;6.604;2023-07-22T20:10:01;99381.25;;;22.47;50.55
16821;BME280;8527;49.740;6.604;2023-07-22T20:15:06;99380.09;;;22.38;50.54
16821;BME280;8527;49.740;6.604;2023-07-22T20:20:06;99372.94;;;22.27;50.73
16821;BME280;8527;49.740;6.604;2023-07-22T20:25:19;99367.72;;;22.15;50.93
16821;BME280;8527;49.740;6.604;2023-07-22T20:30:19;99372.28;;;22.14;51.58
16821;BME280;8527;49.740;6.604;2023-07-22T20:35:18;99376.06;;;22.13;51.10
16821;BME280;8527;49.740;6.604;2023-07-22T20:40:19;99377.91;;;22.08;51.54
16821;BME280;8527;49.740;6.604;2023-07-22T20:45:17;99379.59;;;21.91;51.84
16821;BME280;8527;49.740;6.604;2023-07-22T20:50:16;99372.28;;;21.87;51.91
16821;BME280;8527;49.740;6.604;2023-07-22T20:55:14;99377.56;;;21.76;52.26
16821;BME280;8527;49.740;6.604;2023-07-22T21:00:16;99386.75;;;21.75;52.14
16821;BME280;8527;49.740;6.604;2023-07-22T21:05:15;99385.84;;;21.70;52.77
16821;BME280;8527;49.740;6.604;2023-07-22T21:10:13;99381.69;;;21.62;52.70
16821;BME280;8527;49.740;6.604;2023-07-22T21:15:17;99379.59;;;21.47;53.28
16821;BME280;8527;49.740;6.604;2023-07-22T21:20:19;99372.44;;;21.35;53.90
16821;BME280;8527;49.740;6.604;2023-07-22T21:25:17;99371.53;;;21.30;53.91
16821;BME280;8527;49.740;6.604;2023-07-22T21:30:21;99367.78;;;21.31;53.17
16821;BME280;8527;49.740;6.604;2023-07-22T21:35:20;99360.38;;;21.21;54.79
16821;BME280;8527;49.740;6.604;2023-07-22T21:40:20;99368.66;;;21.14;54.48
16821;BME280;8527;49.740;6.604;2023-07-22T21:45:27;99362.59;;;21.07;54.51
16821;BME280;8527;49.740;6.604;2023-07-22T21:50:26;99360.16;;;21.05;55.31
16821;BME280;8527;49.740;6.604;2023-07-22T21:55:24;99353.47;;;20.91;55.42
16821;BME280;8527;49.740;6.604;2023-07-22T22:00:22;99365.25;;;20.85;55.34
16821;BME280;8527;49.740;6.604;2023-07-22T22:05:24;99363.25;;;20.80;56.11
16821;BME280;8527;49.740;6.604;2023-07-22T22:10:23;99355.56;;;20.72;56.45
16821;BME280;8527;49.740;6.604;2023-07-22T22:15:24;99354.09;;;20.64;56.33
16821;BME280;8527;49.740;6.604;2023-07-22T22:20:28;99346.09;;;20.52;55.96
16821;BME280;8527;49.740;6.604;2023-07-22T22:25:26;99350.25;;;20.43;56.45
16821;BME280;8527;49.740;6.604;2023-07-22T22:30:25;99341.19;;;20.32;56.55
16821;BME280;8527;49.740;6.604;2023-07-22T22:35:29;99334.50;;;20.17;57.47
16821;BME280;8527;49.740;6.604;2023-07-22T22:40:28;99331.75;;;20.00;57.60
16821;BME280;8527;49.740;6.604;2023-07-22T22:45:27;99337.16;;;19.88;58.47
16821;BME280;8527;49.740;6.604;2023-07-22T22:50:25;99326.94;;;19.73;58.57
16821;BME280;8527;49.740;6.604;2023-07-22T22:55:26;99328.69;;;19.67;58.73
16821;BME280;8527;49.740;6.604;2023-07-22T23:00:29;99324.41;;;19.54;58.51
16821;BME280;8527;49.740;6.604;2023-07-22T23:05:28;99320.00;;;19.48;58.09
16821;BME280;8527;49.740;6.604;2023-07-22T23:10:32;99310.19;;;19.30;59.25
16821;BME280;8527;49.740;6.604;2023-07-22T23:15:33;99313.03;;;19.23;59.38
16821;BME280;8527;49.740;6.604;2023-07-22T23:20:32;99309.75;;;19.09;60.17
16821;BME280;8527;49.740;6.604;2023-07-22T23:25:33;99308.03;;;19.03;59.29
16821;BME280;8527;49.740;6.604;2023-07-22T23:30:33;99307.63;;;18.88;60.41
16821;BME280;8527;49.740;6.604;2023-07-22T23:35:32;99311.38;;;18.87;60.47
16821;BME280;8527;49.740;6.604;2023-07-22T23:40:35;99303.56;;;18.73;60.18
16821;BME280;8527;49.740;6.604;2023-07-22T23:45:39;99306.00;;;18.51;60.95
16821;BME280;8527;49.740;6.604;2023-07-22T23:50:38;99300.75;;;18.44;60.91
16821;BME280;8527;49.740;6.604;2023-07-22T23:55:43;99294.06;;;18.35;60.60
